Boston, Massachusetts
Traffic Map
Current Weather Conditions
Boston, Massachusetts
Scattered Clouds
Scattered Clouds
60°
Feels Like: 60°
Wind Chill: 60° Ceiling: Unl
Heat Index: 60° Visibility: 10mi
Dew Point: 57° Wind: 0mph
Humidity: 90% Direction: ° ()
Pressure: 30.21in Gusts: 0mph
Raw Report DataKBOS 300554Z 00000KT 10SM SCT200 16/14 A3021 RMK AO2 SLP229 T01560139 10167 20128 58013
Traffic Incident Summary
Active as of:
Severity:
Category:
InformationThere was an issue retrieving the traffic information for this location. Please try a different location or try again shortly.
Advertisements
Track Severe Weather on mobile